sensor_id;sensor_type;location;lat;lon;timestamp;P1;durP1;ratioP1;P2;durP2;ratioP2
50631;SDS011;49583;45.590;-122.498;2023-04-25T00:00:07;0.60;;;0.30;;
50631;SDS011;49583;45.590;-122.498;2023-04-25T00:02:41;0.30;;;0.30;;
50631;SDS011;49583;45.590;-122.498;2023-04-25T00:04:55;0.30;;;0.30;;
50631;SDS011;49583;45.590;-122.498;2023-04-25T00:07:09;0.40;;;0.30;;
50631;SDS011;49583;45.590;-122.498;2023-04-25T00:09:22;0.30;;;0.30;;
50631;SDS011;49583;45.590;-122.498;2023-04-25T00:11:35;0.50;;;0.40;;
50631;SDS011;49583;45.590;-122.498;2023-04-25T00:13:47;0.30;;;0.30;;
50631;SDS011;49583;45.590;-122.498;2023-04-25T00:16:00;0.60;;;0.30;;
50631;SDS011;49583;45.590;-122.498;2023-04-25T00:18:13;0.30;;;0.30;;
50631;SDS011;49583;45.590;-122.498;2023-04-25T00:20:27;2.10;;;0.30;;
50631;SDS011;49583;45.590;-122.498;2023-04-25T00:22:40;0.30;;;0.30;;
50631;SDS011;49583;45.590;-122.498;2023-04-25T00:24:52;0.40;;;0.30;;
50631;SDS011;49583;45.590;-122.498;2023-04-25T00:27:07;0.30;;;0.30;;
50631;SDS011;49583;45.590;-122.498;2023-04-25T00:29:20;1.60;;;0.40;;
50631;SDS011;49583;45.590;-122.498;2023-04-25T00:31:32;0.30;;;0.30;;
50631;SDS011;49583;45.590;-122.498;2023-04-25T00:33:45;0.90;;;0.40;;
50631;SDS011;49583;45.590;-122.498;2023-04-25T00:35:58;0.30;;;0.30;;
50631;SDS011;49583;45.590;-122.498;2023-04-25T00:38:11;0.90;;;0.50;;
50631;SDS011;49583;45.590;-122.498;2023-04-25T00:40:24;2.00;;;0.30;;
50631;SDS011;49583;45.590;-122.498;2023-04-25T00:42:37;0.30;;;0.30;;
50631;SDS011;49583;45.590;-122.498;2023-04-25T00:44:50;4.90;;;0.30;;
50631;SDS011;49583;45.590;-122.498;2023-04-25T00:47:04;0.30;;;0.30;;
50631;SDS011;49583;45.590;-122.498;2023-04-25T00:49:17;2.50;;;0.30;;
50631;SDS011;49583;45.590;-122.498;2023-04-25T00:51:29;1.40;;;0.40;;
50631;SDS011;49583;45.590;-122.498;2023-04-25T00:53:43;3.50;;;0.40;;
50631;SDS011;49583;45.590;-122.498;2023-04-25T00:55:56;0.20;;;0.20;;
50631;SDS011;49583;45.590;-122.498;2023-04-25T00:58:09;0.50;;;0.40;;
50631;SDS011;49583;45.590;-122.498;2023-04-25T01:00:23;0.40;;;0.40;;
50631;SDS011;49583;45.590;-122.498;2023-04-25T01:02:35;0.80;;;0.40;;
50631;SDS011;49583;45.590;-122.498;2023-04-25T01:04:50;0.30;;;0.30;;
50631;SDS011;49583;45.590;-122.498;2023-04-25T01:07:03;0.60;;;0.30;;
50631;SDS011;49583;45.590;-122.498;2023-04-25T01:09:15;0.40;;;0.40;;
50631;SDS011;49583;45.590;-122.498;2023-04-25T01:11:28;2.60;;;0.50;;
50631;SDS011;49583;45.590;-122.498;2023-04-25T01:13:41;2.30;;;0.40;;
50631;SDS011;49583;45.590;-122.498;2023-04-25T01:15:55;0.40;;;0.40;;
50631;SDS011;49583;45.590;-122.498;2023-04-25T01:18:08;0.30;;;0.30;;
50631;SDS011;49583;45.590;-122.498;2023-04-25T01:20:21;3.70;;;0.40;;
50631;SDS011;49583;45.590;-122.498;2023-04-25T01:22:38;1.00;;;0.40;;
50631;SDS011;49583;45.590;-122.498;2023-04-25T01:24:51;0.40;;;0.40;;
50631;SDS011;49583;45.590;-122.498;2023-04-25T01:27:04;1.60;;;0.30;;
50631;SDS011;49583;45.590;-122.498;2023-04-25T01:29:19;0.50;;;0.40;;
50631;SDS011;49583;45.590;-122.498;2023-04-25T01:31:31;1.50;;;0.40;;
50631;SDS011;49583;45.590;-122.498;2023-04-25T01:33:44;0.50;;;0.40;;
50631;SDS011;49583;45.590;-122.498;2023-04-25T01:35:58;2.40;;;0.40;;
50631;SDS011;49583;45.590;-122.498;2023-04-25T01:38:14;0.30;;;0.30;;
50631;SDS011;49583;45.590;-122.498;2023-04-25T01:40:27;0.80;;;0.40;;
50631;SDS011;49583;45.590;-122.498;2023-04-25T01:42:41;0.70;;;0.30;;
50631;SDS011;49583;45.590;-122.498;2023-04-25T01:44:55;1.20;;;0.40;;
50631;SDS011;49583;45.590;-122.498;2023-04-25T01:47:08;0.50;;;0.30;;
50631;SDS011;49583;45.590;-122.498;2023-04-25T01:49:21;1.70;;;0.30;;
50631;SDS011;49583;45.590;-122.498;2023-04-25T01:51:35;0.50;;;0.50;;
50631;SDS011;49583;45.590;-122.498;2023-04-25T01:53:48;1.40;;;0.70;;
50631;SDS011;49583;45.590;-122.498;2023-04-25T01:56:01;0.40;;;0.40;;
50631;SDS011;49583;45.590;-122.498;2023-04-25T01:58:15;2.60;;;0.50;;
50631;SDS011;49583;45.590;-122.498;2023-04-25T02:00:57;0.40;;;0.30;;
50631;SDS011;49583;45.590;-122.498;2023-04-25T02:03:14;1.70;;;0.50;;
50631;SDS011;49583;45.590;-122.498;2023-04-25T02:05:27;0.40;;;0.40;;
50631;SDS011;49583;45.590;-122.498;2023-04-25T02:07:45;0.30;;;0.30;;
50631;SDS011;49583;45.590;-122.498;2023-04-25T02:09:58;0.30;;;0.30;;
50631;SDS011;49583;45.590;-122.498;2023-04-25T02:12:14;1.00;;;0.40;;
50631;SDS011;49583;45.590;-122.498;2023-04-25T02:14:47;1.90;;;0.40;;
50631;SDS011;49583;45.590;-122.498;2023-04-25T02:17:15;0.90;;;0.60;;
50631;SDS011;49583;45.590;-122.498;2023-04-25T02:19:29;1.90;;;0.50;;
50631;SDS011;49583;45.590;-122.498;2023-04-25T02:21:42;0.60;;;0.40;;
50631;SDS011;49583;45.590;-122.498;2023-04-25T02:23:54;0.60;;;0.40;;
50631;SDS011;49583;45.590;-122.498;2023-04-25T02:26:07;2.30;;;0.50;;
50631;SDS011;49583;45.590;-122.498;2023-04-25T02:28:20;1.50;;;0.30;;
50631;SDS011;49583;45.590;-122.498;2023-04-25T02:30:33;2.40;;;0.50;;
50631;SDS011;49583;45.590;-122.498;2023-04-25T02:32:45;1.30;;;0.70;;
50631;SDS011;49583;45.590;-122.498;2023-04-25T02:34:59;1.10;;;0.50;;
50631;SDS011;49583;45.590;-122.498;2023-04-25T02:37:12;1.50;;;0.60;;
50631;SDS011;49583;45.590;-122.498;2023-04-25T02:39:25;0.60;;;0.50;;
50631;SDS011;49583;45.590;-122.498;2023-04-25T02:41:38;1.60;;;0.60;;
50631;SDS011;49583;45.590;-122.498;2023-04-25T02:43:51;0.60;;;0.60;;
50631;SDS011;49583;45.590;-122.498;2023-04-25T02:46:04;1.30;;;0.70;;
50631;SDS011;49583;45.590;-122.498;2023-04-25T02:48:18;1.20;;;0.80;;
50631;SDS011;49583;45.590;-122.498;2023-04-25T02:50:30;0.60;;;0.60;;
50631;SDS011;49583;45.590;-122.498;2023-04-25T02:52:43;1.10;;;0.50;;
50631;SDS011;49583;45.590;-122.498;2023-04-25T02:55:00;2.20;;;0.70;;
50631;SDS011;49583;45.590;-122.498;2023-04-25T02:57:13;1.50;;;0.60;;
50631;SDS011;49583;45.590;-122.498;2023-04-25T02:59:26;0.60;;;0.50;;
50631;SDS011;49583;45.590;-122.498;2023-04-25T03:01:38;3.00;;;0.60;;
50631;SDS011;49583;45.590;-122.498;2023-04-25T03:03:51;2.20;;;0.80;;
50631;SDS011;49583;45.590;-122.498;2023-04-25T03:06:04;1.50;;;0.60;;
50631;SDS011;49583;45.590;-122.498;2023-04-25T03:08:17;3.60;;;0.70;;
50631;SDS011;49583;45.590;-122.498;2023-04-25T03:10:30;2.70;;;0.60;;
50631;SDS011;49583;45.590;-122.498;2023-04-25T03:12:45;0.90;;;0.60;;
50631;SDS011;49583;45.590;-122.498;2023-04-25T03:14:58;1.20;;;0.60;;
50631;SDS011;49583;45.590;-122.498;2023-04-25T03:17:11;1.50;;;0.70;;
50631;SDS011;49583;45.590;-122.498;2023-04-25T03:19:23;0.90;;;0.60;;
50631;SDS011;49583;45.590;-122.498;2023-04-25T03:21:39;2.00;;;0.80;;
50631;SDS011;49583;45.590;-122.498;2023-04-25T03:23:52;1.00;;;0.50;;
50631;SDS011;49583;45.590;-122.498;2023-04-25T03:26:05;1.90;;;0.80;;
50631;SDS011;49583;45.590;-122.498;2023-04-25T03:28:18;1.80;;;0.60;;
50631;SDS011;49583;45.590;-122.498;2023-04-25T03:30:31;1.10;;;0.50;;
50631;SDS011;49583;45.590;-122.498;2023-04-25T03:32:44;2.80;;;0.70;;
50631;SDS011;49583;45.590;-122.498;2023-04-25T03:34:57;2.30;;;0.60;;
50631;SDS011;49583;45.590;-122.498;2023-04-25T03:37:10;1.90;;;0.70;;
50631;SDS011;49583;45.590;-122.498;2023-04-25T03:39:23;1.80;;;1.20;;
50631;SDS011;49583;45.590;-122.498;2023-04-25T03:41:37;3.20;;;0.70;;
50631;SDS011;49583;45.590;-122.498;2023-04-25T03:43:52;3.10;;;0.70;;
50631;SDS011;49583;45.590;-122.498;2023-04-25T03:46:05;1.60;;;0.80;;
50631;SDS011;49583;45.590;-122.498;2023-04-25T03:48:18;1.40;;;0.60;;
50631;SDS011;49583;45.590;-122.498;2023-04-25T03:50:32;1.80;;;0.70;;
50631;SDS011;49583;45.590;-122.498;2023-04-25T03:52:45;2.10;;;0.70;;
50631;SDS011;49583;45.590;-122.498;2023-04-25T03:54:57;4.40;;;1.40;;
50631;SDS011;49583;45.590;-122.498;2023-04-25T03:57:10;1.80;;;0.70;;
50631;SDS011;49583;45.590;-122.498;2023-04-25T03:59:23;1.60;;;0.80;;
50631;SDS011;49583;45.590;-122.498;2023-04-25T04:01:35;1.20;;;0.40;;
50631;SDS011;49583;45.590;-122.498;2023-04-25T04:03:48;1.20;;;0.50;;
50631;SDS011;49583;45.590;-122.498;2023-04-25T04:06:02;2.70;;;0.70;;
50631;SDS011;49583;45.590;-122.498;2023-04-25T04:08:21;0.70;;;0.60;;
50631;SDS011;49583;45.590;-122.498;2023-04-25T04:10:33;1.40;;;0.40;;
50631;SDS011;49583;45.590;-122.498;2023-04-25T04:12:50;1.90;;;0.60;;
50631;SDS011;49583;45.590;-122.498;2023-04-25T04:15:03;0.90;;;0.50;;
50631;SDS011;49583;45.590;-122.498;2023-04-25T04:17:18;2.40;;;0.50;;
50631;SDS011;49583;45.590;-122.498;2023-04-25T04:19:31;0.80;;;0.40;;
50631;SDS011;49583;45.590;-122.498;2023-04-25T04:21:54;1.00;;;0.50;;
50631;SDS011;49583;45.590;-122.498;2023-04-25T04:24:09;1.70;;;0.60;;
50631;SDS011;49583;45.590;-122.498;2023-04-25T04:26:31;2.40;;;0.60;;
50631;SDS011;49583;45.590;-122.498;2023-04-25T04:29:03;1.20;;;0.60;;
50631;SDS011;49583;45.590;-122.498;2023-04-25T04:31:34;1.50;;;0.40;;
50631;SDS011;49583;45.590;-122.498;2023-04-25T04:33:47;1.50;;;0.50;;
50631;SDS011;49583;45.590;-122.498;2023-04-25T04:35:59;0.70;;;0.50;;
50631;SDS011;49583;45.590;-122.498;2023-04-25T04:38:16;0.60;;;0.50;;
50631;SDS011;49583;45.590;-122.498;2023-04-25T04:40:31;1.30;;;0.60;;
50631;SDS011;49583;45.590;-122.498;2023-04-25T04:42:56;1.30;;;0.50;;
50631;SDS011;49583;45.590;-122.498;2023-04-25T04:45:28;2.00;;;0.60;;
50631;SDS011;49583;45.590;-122.498;2023-04-25T04:47:43;0.70;;;0.50;;
50631;SDS011;49583;45.590;-122.498;2023-04-25T04:50:13;1.30;;;0.50;;
50631;SDS011;49583;45.590;-122.498;2023-04-25T04:52:44;1.40;;;0.50;;
50631;SDS011;49583;45.590;-122.498;2023-04-25T04:55:32;0.80;;;0.70;;
50631;SDS011;49583;45.590;-122.498;2023-04-25T04:57:54;1.80;;;0.80;;
50631;SDS011;49583;45.590;-122.498;2023-04-25T05:00:27;2.00;;;0.70;;
50631;SDS011;49583;45.590;-122.498;2023-04-25T05:03:11;2.30;;;0.70;;
50631;SDS011;49583;45.590;-122.498;2023-04-25T05:05:43;2.60;;;0.60;;
50631;SDS011;49583;45.590;-122.498;2023-04-25T05:08:30;1.00;;;0.40;;
50631;SDS011;49583;45.590;-122.498;2023-04-25T05:10:52;0.50;;;0.40;;
50631;SDS011;49583;45.590;-122.498;2023-04-25T05:13:29;0.70;;;0.50;;
50631;SDS011;49583;45.590;-122.498;2023-04-25T05:16:06;0.50;;;0.40;;
50631;SDS011;49583;45.590;-122.498;2023-04-25T05:18:34;3.30;;;0.60;;
50631;SDS011;49583;45.590;-122.498;2023-04-25T05:21:05;2.00;;;0.50;;
50631;SDS011;49583;45.590;-122.498;2023-04-25T05:23:27;1.60;;;0.60;;
50631;SDS011;49583;45.590;-122.498;2023-04-25T05:26:02;2.10;;;0.60;;
50631;SDS011;49583;45.590;-122.498;2023-04-25T05:28:30;0.60;;;0.50;;
50631;SDS011;49583;45.590;-122.498;2023-04-25T05:31:11;0.60;;;0.50;;
50631;SDS011;49583;45.590;-122.498;2023-04-25T05:33:31;3.00;;;0.70;;
50631;SDS011;49583;45.590;-122.498;2023-04-25T05:35:44;0.80;;;0.50;;
50631;SDS011;49583;45.590;-122.498;2023-04-25T05:37:57;3.50;;;0.60;;
50631;SDS011;49583;45.590;-122.498;2023-04-25T05:40:32;1.60;;;0.50;;
50631;SDS011;49583;45.590;-122.498;2023-04-25T05:43:10;0.50;;;0.40;;
50631;SDS011;49583;45.590;-122.498;2023-04-25T05:45:39;1.40;;;0.60;;
50631;SDS011;49583;45.590;-122.498;2023-04-25T05:48:15;1.60;;;0.40;;
50631;SDS011;49583;45.590;-122.498;2023-04-25T05:50:43;3.10;;;0.60;;
50631;SDS011;49583;45.590;-122.498;2023-04-25T05:53:15;0.80;;;0.60;;
50631;SDS011;49583;45.590;-122.498;2023-04-25T05:55:39;0.50;;;0.50;;
50631;SDS011;49583;45.590;-122.498;2023-04-25T05:58:04;1.40;;;0.80;;
50631;SDS011;49583;45.590;-122.498;2023-04-25T06:00:17;2.40;;;0.70;;
50631;SDS011;49583;45.590;-122.498;2023-04-25T06:02:30;2.10;;;0.60;;
50631;SDS011;49583;45.590;-122.498;2023-04-25T06:04:43;2.80;;;0.70;;
50631;SDS011;49583;45.590;-122.498;2023-04-25T06:06:56;4.00;;;0.70;;
50631;SDS011;49583;45.590;-122.498;2023-04-25T06:09:09;0.80;;;0.60;;
50631;SDS011;49583;45.590;-122.498;2023-04-25T06:11:21;2.70;;;0.60;;
50631;SDS011;49583;45.590;-122.498;2023-04-25T06:13:34;2.20;;;0.60;;
50631;SDS011;49583;45.590;-122.498;2023-04-25T06:15:47;0.70;;;0.60;;
50631;SDS011;49583;45.590;-122.498;2023-04-25T06:18:00;0.70;;;0.70;;
50631;SDS011;49583;45.590;-122.498;2023-04-25T06:20:13;2.90;;;0.70;;
50631;SDS011;49583;45.590;-122.498;2023-04-25T06:22:27;2.40;;;0.80;;
50631;SDS011;49583;45.590;-122.498;2023-04-25T06:24:40;4.40;;;0.70;;
50631;SDS011;49583;45.590;-122.498;2023-04-25T06:26:53;1.90;;;0.60;;
50631;SDS011;49583;45.590;-122.498;2023-04-25T06:29:06;0.60;;;0.60;;
50631;SDS011;49583;45.590;-122.498;2023-04-25T06:31:19;0.50;;;0.50;;
50631;SDS011;49583;45.590;-122.498;2023-04-25T06:33:33;0.80;;;0.70;;
50631;SDS011;49583;45.590;-122.498;2023-04-25T06:35:45;2.40;;;0.70;;
50631;SDS011;49583;45.590;-122.498;2023-04-25T06:38:01;1.00;;;0.70;;
50631;SDS011;49583;45.590;-122.498;2023-04-25T06:40:14;3.00;;;0.90;;
50631;SDS011;49583;45.590;-122.498;2023-04-25T06:42:27;2.70;;;0.70;;
50631;SDS011;49583;45.590;-122.498;2023-04-25T06:44:59;2.20;;;1.00;;
50631;SDS011;49583;45.590;-122.498;2023-04-25T06:47:14;1.00;;;0.70;;
50631;SDS011;49583;45.590;-122.498;2023-04-25T06:49:27;0.70;;;0.60;;
50631;SDS011;49583;45.590;-122.498;2023-04-25T06:51:41;2.40;;;0.80;;
50631;SDS011;49583;45.590;-122.498;2023-04-25T06:53:53;0.70;;;0.60;;
50631;SDS011;49583;45.590;-122.498;2023-04-25T06:56:10;0.90;;;0.70;;
50631;SDS011;49583;45.590;-122.498;2023-04-25T06:58:29;1.10;;;0.70;;
50631;SDS011;49583;45.590;-122.498;2023-04-25T07:01:04;2.20;;;0.80;;
50631;SDS011;49583;45.590;-122.498;2023-04-25T07:03:17;2.50;;;0.70;;
50631;SDS011;49583;45.590;-122.498;2023-04-25T07:05:34;1.90;;;0.70;;
50631;SDS011;49583;45.590;-122.498;2023-04-25T07:07:47;0.80;;;0.60;;
50631;SDS011;49583;45.590;-122.498;2023-04-25T07:10:00;1.90;;;0.50;;
50631;SDS011;49583;45.590;-122.498;2023-04-25T07:12:14;2.40;;;0.60;;
50631;SDS011;49583;45.590;-122.498;2023-04-25T07:14:27;1.20;;;0.70;;
50631;SDS011;49583;45.590;-122.498;2023-04-25T07:16:40;0.50;;;0.50;;
50631;SDS011;49583;45.590;-122.498;2023-04-25T07:18:53;1.10;;;0.60;;
50631;SDS011;49583;45.590;-122.498;2023-04-25T07:21:08;0.80;;;0.60;;
50631;SDS011;49583;45.590;-122.498;2023-04-25T07:23:22;0.50;;;0.50;;
50631;SDS011;49583;45.590;-122.498;2023-04-25T07:25:37;2.60;;;0.50;;
50631;SDS011;49583;45.590;-122.498;2023-04-25T07:27:50;0.70;;;0.70;;
50631;SDS011;49583;45.590;-122.498;2023-04-25T07:30:03;2.80;;;1.00;;
50631;SDS011;49583;45.590;-122.498;2023-04-25T07:32:17;2.70;;;0.60;;
50631;SDS011;49583;45.590;-122.498;2023-04-25T07:34:30;0.80;;;0.50;;
50631;SDS011;49583;45.590;-122.498;2023-04-25T07:36:44;1.30;;;0.80;;
50631;SDS011;49583;45.590;-122.498;2023-04-25T07:38:57;2.00;;;0.60;;
50631;SDS011;49583;45.590;-122.498;2023-04-25T07:41:10;2.70;;;0.80;;
50631;SDS011;49583;45.590;-122.498;2023-04-25T07:43:23;1.00;;;0.80;;
50631;SDS011;49583;45.590;-122.498;2023-04-25T07:45:37;1.80;;;0.80;;
50631;SDS011;49583;45.590;-122.498;2023-04-25T07:47:53;1.10;;;0.80;;
50631;SDS011;49583;45.590;-122.498;2023-04-25T07:50:09;2.40;;;0.90;;
50631;SDS011;49583;45.590;-122.498;2023-04-25T07:52:23;5.40;;;0.90;;
50631;SDS011;49583;45.590;-122.498;2023-04-25T07:54:42;4.80;;;1.00;;
50631;SDS011;49583;45.590;-122.498;2023-04-25T07:56:59;2.40;;;0.90;;
50631;SDS011;49583;45.590;-122.498;2023-04-25T07:59:15;2.80;;;1.70;;
50631;SDS011;49583;45.590;-122.498;2023-04-25T08:01:28;4.00;;;1.00;;
50631;SDS011;49583;45.590;-122.498;2023-04-25T08:03:44;2.80;;;1.00;;
50631;SDS011;49583;45.590;-122.498;2023-04-25T08:06:04;2.20;;;1.20;;
50631;SDS011;49583;45.590;-122.498;2023-04-25T08:08:25;2.10;;;0.70;;
50631;SDS011;49583;45.590;-122.498;2023-04-25T08:10:38;5.40;;;0.80;;
50631;SDS011;49583;45.590;-122.498;2023-04-25T08:12:52;1.00;;;0.80;;
50631;SDS011;49583;45.590;-122.498;2023-04-25T08:15:05;3.00;;;0.60;;
50631;SDS011;49583;45.590;-122.498;2023-04-25T08:17:19;2.90;;;1.50;;
50631;SDS011;49583;45.590;-122.498;2023-04-25T08:19:31;1.10;;;0.50;;
50631;SDS011;49583;45.590;-122.498;2023-04-25T08:21:45;2.20;;;0.80;;
50631;SDS011;49583;45.590;-122.498;2023-04-25T08:24:04;0.70;;;0.60;;
50631;SDS011;49583;45.590;-122.498;2023-04-25T08:26:18;2.10;;;0.90;;
50631;SDS011;49583;45.590;-122.498;2023-04-25T08:30:45;0.70;;;0.60;;
50631;SDS011;49583;45.590;-122.498;2023-04-25T08:32:58;2.20;;;0.70;;
50631;SDS011;49583;45.590;-122.498;2023-04-25T08:35:38;1.90;;;0.60;;
50631;SDS011;49583;45.590;-122.498;2023-04-25T08:37:52;1.80;;;0.80;;
50631;SDS011;49583;45.590;-122.498;2023-04-25T08:40:06;2.20;;;0.90;;
50631;SDS011;49583;45.590;-122.498;2023-04-25T08:42:41;1.50;;;0.70;;
50631;SDS011;49583;45.590;-122.498;2023-04-25T08:44:54;1.20;;;0.60;;
50631;SDS011;49583;45.590;-122.498;2023-04-25T08:47:31;0.80;;;0.60;;
50631;SDS011;49583;45.590;-122.498;2023-04-25T08:49:47;0.70;;;0.70;;
50631;SDS011;49583;45.590;-122.498;2023-04-25T08:52:03;4.80;;;1.40;;
50631;SDS011;49583;45.590;-122.498;2023-04-25T08:54:19;3.90;;;1.00;;
50631;SDS011;49583;45.590;-122.498;2023-04-25T08:56:36;2.80;;;1.00;;
50631;SDS011;49583;45.590;-122.498;2023-04-25T08:58:53;1.60;;;0.70;;
50631;SDS011;49583;45.590;-122.498;2023-04-25T09:01:08;1.10;;;0.70;;
50631;SDS011;49583;45.590;-122.498;2023-04-25T09:03:26;2.00;;;0.60;;
50631;SDS011;49583;45.590;-122.498;2023-04-25T09:05:39;2.20;;;1.10;;
50631;SDS011;49583;45.590;-122.498;2023-04-25T09:07:54;2.00;;;0.80;;
50631;SDS011;49583;45.590;-122.498;2023-04-25T09:10:09;0.90;;;0.70;;
50631;SDS011;49583;45.590;-122.498;2023-04-25T09:12:22;2.80;;;0.80;;
50631;SDS011;49583;45.590;-122.498;2023-04-25T09:14:36;2.30;;;0.80;;
50631;SDS011;49583;45.590;-122.498;2023-04-25T09:17:03;1.00;;;0.80;;
50631;SDS011;49583;45.590;-122.498;2023-04-25T09:19:26;2.20;;;0.70;;
50631;SDS011;49583;45.590;-122.498;2023-04-25T09:21:43;1.70;;;0.70;;
50631;SDS011;49583;45.590;-122.498;2023-04-25T09:23:58;2.60;;;0.80;;
50631;SDS011;49583;45.590;-122.498;2023-04-25T09:26:11;0.50;;;0.40;;
50631;SDS011;49583;45.590;-122.498;2023-04-25T09:28:27;1.20;;;0.70;;
50631;SDS011;49583;45.590;-122.498;2023-04-25T09:30:40;3.60;;;0.70;;
50631;SDS011;49583;45.590;-122.498;2023-04-25T09:33:06;3.00;;;0.70;;
50631;SDS011;49583;45.590;-122.498;2023-04-25T09:35:28;3.50;;;0.90;;
50631;SDS011;49583;45.590;-122.498;2023-04-25T09:37:45;1.00;;;0.70;;
50631;SDS011;49583;45.590;-122.498;2023-04-25T09:40:16;2.50;;;0.80;;
50631;SDS011;49583;45.590;-122.498;2023-04-25T09:42:36;3.20;;;0.80;;
50631;SDS011;49583;45.590;-122.498;2023-04-25T09:44:54;3.40;;;0.80;;
50631;SDS011;49583;45.590;-122.498;2023-04-25T09:47:12;2.70;;;0.80;;
50631;SDS011;49583;45.590;-122.498;2023-04-25T09:49:25;1.00;;;0.60;;
50631;SDS011;49583;45.590;-122.498;2023-04-25T09:51:55;1.80;;;1.10;;
50631;SDS011;49583;45.590;-122.498;2023-04-25T09:54:34;2.60;;;0.90;;
50631;SDS011;49583;45.590;-122.498;2023-04-25T09:56:51;1.00;;;0.80;;
50631;SDS011;49583;45.590;-122.498;2023-04-25T09:59:04;1.10;;;0.80;;
50631;SDS011;49583;45.590;-122.498;2023-04-25T10:04:22;4.80;;;0.70;;
50631;SDS011;49583;45.590;-122.498;2023-04-25T10:06:59;1.70;;;0.80;;
50631;SDS011;49583;45.590;-122.498;2023-04-25T10:09:33;1.10;;;0.60;;
50631;SDS011;49583;45.590;-122.498;2023-04-25T10:12:07;3.00;;;0.70;;
50631;SDS011;49583;45.590;-122.498;2023-04-25T10:14:31;2.70;;;0.70;;
50631;SDS011;49583;45.590;-122.498;2023-04-25T10:16:47;1.40;;;0.80;;
50631;SDS011;49583;45.590;-122.498;2023-04-25T10:19:21;1.90;;;0.70;;
50631;SDS011;49583;45.590;-122.498;2023-04-25T10:21:56;2.20;;;1.00;;
50631;SDS011;49583;45.590;-122.498;2023-04-25T10:24:35;2.10;;;0.80;;
50631;SDS011;49583;45.590;-122.498;2023-04-25T10:27:09;2.50;;;0.80;;
50631;SDS011;49583;45.590;-122.498;2023-04-25T10:29:43;1.10;;;0.70;;
50631;SDS011;49583;45.590;-122.498;2023-04-25T10:32:30;1.50;;;0.80;;
50631;SDS011;49583;45.590;-122.498;2023-04-25T10:35:13;0.70;;;0.60;;
50631;SDS011;49583;45.590;-122.498;2023-04-25T10:37:36;4.10;;;1.10;;
50631;SDS011;49583;45.590;-122.498;2023-04-25T10:40:12;0.90;;;0.80;;
50631;SDS011;49583;45.590;-122.498;2023-04-25T10:42:34;2.50;;;0.80;;
50631;SDS011;49583;45.590;-122.498;2023-04-25T10:45:08;1.90;;;1.00;;
50631;SDS011;49583;45.590;-122.498;2023-04-25T10:47:45;0.90;;;0.70;;
50631;SDS011;49583;45.590;-122.498;2023-04-25T10:49:59;2.30;;;0.60;;
50631;SDS011;49583;45.590;-122.498;2023-04-25T10:52:38;1.30;;;0.90;;
50631;SDS011;49583;45.590;-122.498;2023-04-25T10:55:11;2.20;;;0.90;;
50631;SDS011;49583;45.590;-122.498;2023-04-25T10:57:45;2.40;;;0.90;;
50631;SDS011;49583;45.590;-122.498;2023-04-25T11:00:20;1.70;;;1.00;;
50631;SDS011;49583;45.590;-122.498;2023-04-25T11:03:15;1.40;;;0.70;;
50631;SDS011;49583;45.590;-122.498;2023-04-25T11:05:51;8.30;;;1.30;;
50631;SDS011;49583;45.590;-122.498;2023-04-25T11:08:41;5.50;;;1.10;;
50631;SDS011;49583;45.590;-122.498;2023-04-25T11:11:20;1.00;;;0.90;;
50631;SDS011;49583;45.590;-122.498;2023-04-25T11:13:52;2.00;;;0.90;;
50631;SDS011;49583;45.590;-122.498;2023-04-25T11:16:25;0.90;;;0.80;;
50631;SDS011;49583;45.590;-122.498;2023-04-25T11:18:51;3.30;;;0.80;;
50631;SDS011;49583;45.590;-122.498;2023-04-25T11:21:13;1.60;;;1.20;;
50631;SDS011;49583;45.590;-122.498;2023-04-25T11:23:36;3.30;;;1.00;;
50631;SDS011;49583;45.590;-122.498;2023-04-25T11:26:09;4.50;;;1.10;;
50631;SDS011;49583;45.590;-122.498;2023-04-25T11:28:48;7.40;;;1.30;;
50631;SDS011;49583;45.590;-122.498;2023-04-25T11:31:22;2.30;;;1.50;;
50631;SDS011;49583;45.590;-122.498;2023-04-25T11:33:46;8.40;;;1.30;;
50631;SDS011;49583;45.590;-122.498;2023-04-25T11:36:02;2.00;;;1.20;;
50631;SDS011;49583;45.590;-122.498;2023-04-25T11:38:37;2.70;;;1.30;;
50631;SDS011;49583;45.590;-122.498;2023-04-25T11:40:59;1.70;;;1.30;;
50631;SDS011;49583;45.590;-122.498;2023-04-25T11:43:32;1.40;;;1.30;;
50631;SDS011;49583;45.590;-122.498;2023-04-25T11:46:01;1.50;;;1.40;;
50631;SDS011;49583;45.590;-122.498;2023-04-25T11:48:39;1.70;;;1.60;;
50631;SDS011;49583;45.590;-122.498;2023-04-25T11:51:12;2.60;;;1.30;;
50631;SDS011;49583;45.590;-122.498;2023-04-25T11:53:46;2.00;;;1.40;;
50631;SDS011;49583;45.590;-122.498;2023-04-25T11:56:19;3.00;;;1.40;;
50631;SDS011;49583;45.590;-122.498;2023-04-25T11:58:32;1.80;;;1.20;;
50631;SDS011;49583;45.590;-122.498;2023-04-25T12:01:30;3.80;;;1.30;;
50631;SDS011;49583;45.590;-122.498;2023-04-25T12:03:47;2.20;;;1.30;;
50631;SDS011;49583;45.590;-122.498;2023-04-25T12:06:20;2.40;;;1.00;;
50631;SDS011;49583;45.590;-122.498;2023-04-25T12:09:03;2.00;;;1.10;;
50631;SDS011;49583;45.590;-122.498;2023-04-25T12:11:42;4.50;;;1.70;;
50631;SDS011;49583;45.590;-122.498;2023-04-25T12:14:08;1.60;;;1.30;;
50631;SDS011;49583;45.590;-122.498;2023-04-25T12:16:39;1.30;;;0.90;;
50631;SDS011;49583;45.590;-122.498;2023-04-25T12:19:34;1.50;;;1.40;;
50631;SDS011;49583;45.590;-122.498;2023-04-25T12:22:20;3.10;;;1.30;;
50631;SDS011;49583;45.590;-122.498;2023-04-25T12:24:53;3.00;;;1.30;;
50631;SDS011;49583;45.590;-122.498;2023-04-25T12:27:26;2.10;;;1.10;;
50631;SDS011;49583;45.590;-122.498;2023-04-25T12:30:01;5.80;;;1.50;;
50631;SDS011;49583;45.590;-122.498;2023-04-25T12:32:34;2.80;;;1.70;;
50631;SDS011;49583;45.590;-122.498;2023-04-25T12:35:07;5.60;;;1.70;;
50631;SDS011;49583;45.590;-122.498;2023-04-25T12:37:40;1.40;;;1.20;;
50631;SDS011;49583;45.590;-122.498;2023-04-25T12:40:14;4.00;;;1.20;;
50631;SDS011;49583;45.590;-122.498;2023-04-25T12:42:27;3.70;;;1.60;;
50631;SDS011;49583;45.590;-122.498;2023-04-25T12:45:00;4.80;;;1.20;;
50631;SDS011;49583;45.590;-122.498;2023-04-25T12:47:17;4.50;;;1.30;;
50631;SDS011;49583;45.590;-122.498;2023-04-25T12:49:51;4.60;;;1.70;;
50631;SDS011;49583;45.590;-122.498;2023-04-25T12:52:24;3.20;;;1.40;;
50631;SDS011;49583;45.590;-122.498;2023-04-25T12:54:51;2.40;;;1.30;;
50631;SDS011;49583;45.590;-122.498;2023-04-25T12:57:15;3.20;;;1.30;;
50631;SDS011;49583;45.590;-122.498;2023-04-25T12:59:40;1.90;;;1.30;;
50631;SDS011;49583;45.590;-122.498;2023-04-25T13:02:05;5.60;;;1.60;;
50631;SDS011;49583;45.590;-122.498;2023-04-25T13:04:38;2.70;;;1.00;;
50631;SDS011;49583;45.590;-122.498;2023-04-25T13:06:54;2.60;;;1.10;;
50631;SDS011;49583;45.590;-122.498;2023-04-25T13:09:27;2.60;;;1.40;;
50631;SDS011;49583;45.590;-122.498;2023-04-25T13:12:00;2.40;;;1.20;;
50631;SDS011;49583;45.590;-122.498;2023-04-25T13:14:33;2.10;;;1.10;;
50631;SDS011;49583;45.590;-122.498;2023-04-25T13:16:57;1.20;;;0.80;;
50631;SDS011;49583;45.590;-122.498;2023-04-25T13:19:29;4.00;;;1.40;;
50631;SDS011;49583;45.590;-122.498;2023-04-25T13:21:42;2.20;;;1.30;;
50631;SDS011;49583;45.590;-122.498;2023-04-25T13:24:14;3.10;;;1.30;;
50631;SDS011;49583;45.590;-122.498;2023-04-25T13:26:27;3.20;;;1.60;;
50631;SDS011;49583;45.590;-122.498;2023-04-25T13:28:59;4.70;;;1.40;;
50631;SDS011;49583;45.590;-122.498;2023-04-25T13:31:32;3.50;;;1.50;;
50631;SDS011;49583;45.590;-122.498;2023-04-25T13:34:06;2.30;;;1.20;;